createdAt,value
2023-02-15T00:02:00.428Z,16.27
2023-02-15T00:04:47.345Z,15.70
2023-02-15T00:07:18.813Z,14.57
2023-02-15T00:09:48.958Z,14.20
2023-02-15T00:12:16.658Z,13.55
2023-02-15T00:14:43.295Z,12.82
2023-02-15T00:17:10.212Z,14.85
2023-02-15T00:19:36.877Z,13.20
2023-02-15T00:22:03.576Z,14.50
2023-02-15T00:24:30.230Z,14.50
2023-02-15T00:26:56.910Z,14.18
2023-02-15T00:29:23.757Z,12.45
2023-02-15T00:31:50.717Z,13.63
2023-02-15T00:34:24.257Z,12.73
2023-02-15T00:36:51.671Z,11.57
2023-02-15T00:39:19.067Z,14.02
2023-02-15T00:41:46.926Z,12.57
2023-02-15T00:44:14.585Z,14.20
2023-02-15T00:46:41.316Z,11.48
2023-02-15T00:49:08.071Z,11.05
2023-02-15T00:51:35.429Z,13.32
2023-02-15T00:54:02.171Z,11.60
2023-02-15T00:56:29.653Z,13.02
2023-02-15T00:58:56.711Z,14.65
2023-02-15T01:01:24.693Z,11.35
2023-02-15T01:03:51.667Z,10.35
2023-02-15T01:06:18.877Z,13.05
2023-02-15T01:08:47.103Z,13.68
2023-02-15T01:11:22.898Z,15.13
2023-02-15T01:13:57.795Z,12.95
2023-02-15T01:16:27.507Z,15.93
2023-02-15T01:18:55.748Z,15.20
2023-02-15T01:21:24.471Z,14.43
2023-02-15T01:23:51.162Z,15.98
2023-02-15T01:26:18.450Z,12.80
2023-02-15T01:28:45.423Z,13.63
2023-02-15T01:31:15.654Z,15.43
2023-02-15T01:33:42.824Z,14.02
2023-02-15T01:36:09.518Z,15.00
2023-02-15T01:38:36.709Z,16.00
2023-02-15T01:41:25.412Z,14.80
2023-02-15T01:43:53.677Z,14.15
2023-02-15T01:46:24.456Z,13.80
2023-02-15T01:49:06.299Z,15.93
2023-02-15T01:51:35.950Z,15.05
2023-02-15T01:54:11.528Z,18.38
2023-02-15T01:56:40.774Z,17.48
2023-02-15T01:59:12.784Z,16.02
2023-02-15T02:01:40.019Z,15.68
2023-02-15T02:04:30.897Z,13.77
2023-02-15T02:06:58.866Z,15.73
2023-02-15T02:09:25.825Z,16.80
2023-02-15T02:11:55.089Z,16.58
2023-02-15T02:14:23.610Z,17.23
2023-02-15T02:17:24.882Z,17.67
2023-02-15T02:20:31.165Z,16.95
2023-02-15T02:23:36.697Z,20.60
2023-02-15T02:26:38.659Z,17.40
2023-02-15T02:29:17.462Z,20.30
2023-02-15T02:32:22.016Z,20.63
2023-02-15T02:35:14.747Z,17.90
2023-02-15T02:37:53.712Z,22.50
2023-02-15T02:40:50.442Z,17.88
2023-02-15T02:43:30.858Z,19.80
2023-02-15T02:46:10.249Z,18.30
2023-02-15T02:51:04.311Z,21.42
2023-02-15T02:53:32.707Z,18.65
2023-02-15T02:56:29.258Z,19.37
2023-02-15T02:59:19.218Z,19.38
2023-02-15T03:01:53.979Z,19.73
2023-02-15T03:04:27.668Z,21.77
2023-02-15T03:07:05.911Z,20.60
2023-02-15T03:09:48.281Z,19.40
2023-02-15T03:12:20.660Z,23.33
2023-02-15T03:14:52.825Z,24.95
2023-02-15T03:17:23.626Z,20.33
2023-02-15T03:19:54.126Z,23.77
2023-02-15T03:22:32.878Z,19.88
2023-02-15T03:25:23.792Z,21.77
2023-02-15T03:27:56.436Z,24.05
2023-02-15T03:30:24.336Z,25.63
2023-02-15T03:32:52.705Z,24.77
2023-02-15T03:35:23.982Z,24.30
2023-02-15T03:38:01.703Z,27.05
2023-02-15T03:40:53.128Z,23.75
2023-02-15T03:43:35.884Z,24.35
2023-02-15T03:46:12.913Z,24.73
2023-02-15T03:48:46.837Z,21.83
2023-02-15T03:51:37.166Z,21.83
2023-02-15T03:54:14.374Z,22.77
2023-02-15T03:57:03.185Z,25.65
2023-02-15T03:59:48.718Z,22.65
2023-02-15T04:02:25.086Z,22.33
2023-02-15T04:04:51.764Z,22.63
2023-02-15T04:07:18.451Z,23.65
2023-02-15T04:10:03.563Z,20.15
2023-02-15T04:12:30.178Z,25.13
2023-02-15T04:15:15.328Z,22.40
2023-02-15T04:17:41.924Z,25.83
2023-02-15T04:20:28.112Z,22.80
2023-02-15T04:23:13.496Z,26.35
2023-02-15T04:25:40.167Z,25.52
2023-02-15T04:28:08.655Z,23.38
2023-02-15T04:30:35.493Z,26.38
2023-02-15T04:33:02.079Z,25.13
2023-02-15T04:35:28.958Z,26.17
2023-02-15T04:37:56.910Z,23.35
2023-02-15T04:40:23.597Z,22.13
2023-02-15T04:42:50.328Z,22.55
2023-02-15T04:45:18.017Z,26.33
2023-02-15T04:47:45.003Z,28.35
2023-02-15T04:50:12.163Z,30.42
2023-02-15T04:52:38.791Z,27.92
2023-02-15T04:55:05.822Z,25.60
2023-02-15T04:57:32.590Z,26.98
2023-02-15T05:00:00.301Z,27.23
2023-02-15T05:02:27.074Z,26.75
2023-02-15T05:04:53.798Z,27.60
2023-02-15T05:07:21.433Z,25.38
2023-02-15T05:09:48.890Z,26.73
2023-02-15T05:12:15.643Z,21.90
2023-02-15T05:14:42.325Z,24.90
2023-02-15T05:17:08.900Z,27.88
2023-02-15T05:19:35.544Z,27.77
2023-02-15T05:22:02.176Z,28.80
2023-02-15T05:24:47.378Z,29.40
2023-02-15T05:27:32.526Z,29.02
2023-02-15T05:29:59.439Z,29.90
2023-02-15T05:32:26.344Z,30.17
2023-02-15T05:34:53.084Z,28.35
2023-02-15T05:37:19.705Z,25.73
2023-02-15T05:39:46.384Z,28.58
2023-02-15T05:42:13.078Z,33.55
2023-02-15T05:44:39.659Z,32.03
2023-02-15T05:47:08.297Z,33.38
2023-02-15T05:49:35.279Z,34.22
2023-02-15T05:52:02.435Z,27.88
2023-02-15T05:54:29.235Z,27.65
2023-02-15T05:56:56.072Z,30.48
2023-02-15T05:59:22.649Z,28.17
2023-02-15T06:01:49.369Z,28.50
2023-02-15T06:04:15.993Z,28.17
2023-02-15T06:06:42.679Z,30.48
2023-02-15T06:09:09.319Z,28.88
2023-02-15T06:11:35.916Z,29.85
2023-02-15T06:14:02.586Z,28.48
2023-02-15T06:16:29.237Z,29.48
2023-02-15T06:18:55.823Z,25.85
2023-02-15T06:21:22.520Z,29.42
2023-02-15T06:23:49.101Z,26.58
2023-02-15T06:26:15.727Z,29.48
2023-02-15T06:28:42.309Z,23.27
2023-02-15T06:31:09.150Z,25.85
2023-02-15T06:33:36.232Z,24.00
2023-02-15T06:36:04.782Z,28.58
2023-02-15T06:38:32.094Z,21.92
2023-02-15T06:40:58.866Z,25.98
2023-02-15T06:43:25.626Z,27.88
2023-02-15T06:45:52.362Z,23.60
2023-02-15T06:48:18.963Z,23.85
2023-02-15T06:50:45.600Z,20.65
2023-02-15T06:53:12.260Z,25.35
2023-02-15T06:55:38.865Z,26.27
2023-02-15T06:58:05.517Z,25.73
2023-02-15T07:00:32.246Z,28.15
2023-02-15T07:03:00.153Z,24.73
2023-02-15T07:05:32.396Z,26.25
2023-02-15T07:08:00.051Z,25.45
2023-02-15T07:10:27.719Z,25.23
2023-02-15T07:12:54.674Z,23.85
2023-02-15T07:15:21.984Z,24.98
2023-02-15T07:17:50.153Z,21.92
2023-02-15T07:20:22.883Z,22.95
2023-02-15T07:22:50.490Z,23.52
2023-02-15T07:25:17.854Z,18.05
2023-02-15T07:27:45.802Z,17.15
2023-02-15T07:30:15.448Z,18.80
2023-02-15T07:33:04.798Z,19.45
2023-02-15T07:35:31.889Z,21.98
2023-02-15T07:37:58.553Z,17.58
2023-02-15T07:40:25.450Z,15.85
2023-02-15T07:42:56.027Z,14.90
2023-02-15T07:45:23.259Z,14.95
2023-02-15T07:47:50.082Z,15.63
2023-02-15T07:50:16.749Z,14.65
2023-02-15T07:52:43.374Z,14.68
2023-02-15T07:55:13.344Z,13.10
2023-02-15T07:57:45.075Z,13.88
2023-02-15T08:00:16.418Z,14.02
2023-02-15T08:02:43.151Z,14.13
2023-02-15T08:05:09.799Z,16.40
2023-02-15T08:07:36.517Z,16.33
2023-02-15T08:10:03.284Z,14.35
2023-02-15T08:12:30.157Z,13.10
2023-02-15T08:14:56.903Z,13.10
2023-02-15T08:17:24.608Z,12.35
2023-02-15T08:19:51.245Z,12.20
2023-02-15T08:22:17.885Z,13.07
2023-02-15T08:24:44.490Z,12.80
2023-02-15T08:27:12.113Z,12.27
2023-02-15T08:29:40.207Z,12.10
2023-02-15T08:32:10.226Z,12.05
2023-02-15T08:34:40.062Z,11.70
2023-02-15T08:37:07.139Z,12.18
2023-02-15T08:39:34.257Z,11.32
2023-02-15T08:42:00.960Z,11.13
2023-02-15T08:44:27.668Z,11.85
2023-02-15T08:46:55.747Z,11.63
2023-02-15T08:49:23.228Z,17.60
2023-02-15T08:51:50.865Z,12.02
2023-02-15T08:54:22.777Z,9.48
2023-02-15T08:56:49.590Z,9.15
2023-02-15T08:59:24.145Z,10.15
2023-02-15T09:01:52.732Z,9.35
2023-02-15T09:04:20.346Z,9.85
2023-02-15T09:06:49.267Z,9.52
2023-02-15T09:09:17.805Z,9.63
2023-02-15T09:11:46.941Z,9.17
2023-02-15T09:14:17.001Z,9.13
2023-02-15T09:16:47.452Z,9.77
2023-02-15T09:19:14.447Z,8.52
2023-02-15T09:21:41.457Z,10.18
2023-02-15T09:24:11.623Z,9.02
2023-02-15T09:26:41.797Z,10.02
2023-02-15T09:29:09.347Z,9.57
2023-02-15T09:31:42.522Z,9.68
2023-02-15T09:34:09.496Z,9.50
2023-02-15T09:36:39.100Z,9.35
2023-02-15T09:39:12.146Z,10.07
2023-02-15T09:42:05.553Z,9.68
2023-02-15T09:48:06.623Z,8.48
2023-02-15T09:50:59.874Z,8.60
2023-02-15T09:54:09.353Z,8.63
2023-02-15T09:59:35.790Z,8.15
2023-02-15T10:02:20.538Z,8.20
2023-02-15T10:04:56.816Z,7.50
2023-02-15T10:07:51.880Z,8.73
2023-02-15T10:10:53.079Z,8.43
2023-02-15T10:13:43.401Z,8.23
2023-02-15T10:16:24.047Z,8.13
2023-02-15T10:18:55.464Z,7.82
2023-02-15T10:22:19.508Z,7.60
2023-02-15T10:24:49.310Z,7.65
2023-02-15T10:27:22.967Z,8.20
2023-02-15T10:29:52.402Z,7.18
2023-02-15T10:35:01.771Z,6.38
2023-02-15T10:37:50.486Z,7.65
2023-02-15T10:40:45.221Z,9.52
2023-02-15T10:43:23.593Z,6.88
2023-02-15T10:45:55.940Z,6.93
2023-02-15T10:48:54.959Z,7.45
2023-02-15T10:51:31.651Z,7.10
2023-02-15T10:54:05.311Z,6.40
2023-02-15T10:56:58.117Z,6.78
2023-02-15T11:00:03.641Z,6.57
2023-02-15T11:02:37.731Z,7.20
2023-02-15T11:05:25.947Z,6.82
2023-02-15T11:07:56.836Z,6.05
2023-02-15T11:10:36.962Z,8.25
2023-02-15T11:13:10.188Z,7.25
2023-02-15T11:16:01.114Z,6.72
2023-02-15T11:18:39.310Z,6.30
2023-02-15T11:21:14.153Z,10.13
2023-02-15T11:23:46.198Z,6.38
2023-02-15T11:26:23.133Z,7.53
2023-02-15T11:28:56.339Z,9.07
2023-02-15T11:31:27.739Z,8.95
2023-02-15T11:34:03.226Z,7.25
2023-02-15T11:36:35.005Z,7.53
2023-02-15T11:39:17.621Z,7.78
2023-02-15T11:41:58.217Z,7.75
2023-02-15T11:44:32.687Z,7.93
2023-02-15T11:46:59.919Z,7.25
2023-02-15T11:49:29.530Z,8.20
2023-02-15T11:51:58.050Z,8.20
2023-02-15T11:54:30.867Z,8.00
2023-02-15T11:57:04.242Z,7.60
2023-02-15T11:59:38.727Z,7.82
2023-02-15T12:02:21.009Z,7.75
2023-02-15T12:04:53.918Z,7.57
2023-02-15T12:07:26.718Z,7.05
2023-02-15T12:10:18.147Z,8.85
2023-02-15T12:12:45.054Z,7.22
2023-02-15T12:15:13.095Z,7.97
2023-02-15T12:17:41.036Z,7.85
2023-02-15T12:20:32.785Z,7.97
2023-02-15T12:23:08.235Z,7.68
2023-02-15T12:25:40.906Z,7.57
2023-02-15T12:28:28.589Z,10.05
2023-02-15T12:30:57.512Z,7.50
2023-02-15T12:33:26.791Z,7.57
2023-02-15T12:36:11.592Z,8.05
2023-02-15T12:38:38.868Z,7.75
2023-02-15T12:41:23.598Z,7.40
2023-02-15T12:44:05.646Z,8.20
2023-02-15T12:46:37.890Z,7.65
2023-02-15T12:49:20.489Z,7.70
2023-02-15T12:51:59.666Z,7.20
2023-02-15T12:54:41.225Z,7.60
2023-02-15T12:57:33.802Z,8.00
2023-02-15T13:00:24.286Z,7.95
2023-02-15T13:02:54.188Z,8.13
2023-02-15T13:05:35.312Z,7.40
2023-02-15T13:08:26.873Z,10.13
2023-02-15T13:11:01.187Z,8.07
2023-02-15T13:13:30.963Z,8.68
2023-02-15T13:16:05.709Z,8.82
2023-02-15T13:18:38.913Z,13.25
2023-02-15T13:21:19.618Z,8.43
2023-02-15T13:23:51.983Z,7.95
2023-02-15T13:26:24.362Z,9.13
2023-02-15T13:28:56.528Z,8.73
2023-02-15T13:31:28.821Z,9.77
2023-02-15T13:34:04.346Z,7.70
2023-02-15T13:37:07.010Z,10.10
2023-02-15T13:39:45.450Z,8.93
2023-02-15T13:42:14.656Z,8.60
2023-02-15T13:45:15.272Z,9.50
2023-02-15T13:47:53.570Z,8.35
2023-02-15T13:50:30.172Z,8.05
2023-02-15T13:53:08.703Z,9.50
2023-02-15T13:55:51.065Z,10.37
2023-02-15T13:58:43.817Z,8.70
2023-02-15T14:01:14.421Z,9.23
2023-02-15T14:03:44.051Z,9.25
2023-02-15T14:06:41.376Z,7.93
2023-02-15T14:09:35.955Z,8.70
2023-02-15T14:12:08.336Z,9.23
2023-02-15T14:14:58.567Z,9.52
2023-02-15T14:17:43.456Z,9.85
2023-02-15T14:20:37.214Z,8.27
2023-02-15T14:23:28.537Z,7.72
2023-02-15T14:26:07.582Z,8.27
2023-02-15T14:28:49.251Z,8.85
2023-02-15T14:31:16.920Z,9.80
2023-02-15T14:33:55.297Z,9.98
2023-02-15T14:36:23.709Z,8.57
2023-02-15T14:39:45.866Z,8.85
2023-02-15T14:42:40.234Z,9.93
2023-02-15T14:45:16.596Z,9.88
2023-02-15T14:47:50.103Z,9.07
2023-02-15T14:50:32.187Z,9.27
2023-02-15T14:53:32.038Z,10.73
2023-02-15T14:56:19.159Z,9.73
2023-02-15T14:58:52.648Z,10.25
2023-02-15T15:02:11.798Z,8.23
2023-02-15T15:04:43.279Z,9.88
2023-02-15T15:07:23.414Z,8.48
2023-02-15T15:10:21.558Z,9.63
2023-02-15T15:12:58.839Z,10.32
2023-02-15T15:15:28.515Z,9.80
2023-02-15T15:18:06.799Z,9.77
2023-02-15T15:20:51.771Z,10.85
2023-02-15T15:23:22.096Z,11.52
2023-02-15T15:26:28.385Z,11.38
2023-02-15T15:28:57.559Z,10.27
2023-02-15T15:31:51.593Z,9.82
2023-02-15T15:34:49.852Z,12.43
2023-02-15T15:37:22.203Z,12.13
2023-02-15T15:40:10.750Z,9.82
2023-02-15T15:43:05.832Z,11.87
2023-02-15T15:46:01.900Z,9.85
2023-02-15T15:48:34.828Z,12.80
2023-02-15T15:51:22.175Z,11.65
2023-02-15T15:53:54.142Z,11.52
2023-02-15T15:56:25.777Z,12.63
2023-02-15T15:58:56.813Z,11.75
2023-02-15T16:01:31.767Z,11.27
2023-02-15T16:04:00.440Z,12.27
2023-02-15T16:06:33.082Z,11.30
2023-02-15T16:09:12.144Z,12.65
2023-02-15T16:11:42.181Z,12.05
2023-02-15T16:14:27.478Z,14.77
2023-02-15T16:16:57.368Z,14.63
2023-02-15T16:19:29.056Z,11.80
2023-02-15T16:21:58.773Z,11.80
2023-02-15T16:24:53.434Z,12.18
2023-02-15T16:27:36.594Z,12.70
2023-02-15T16:30:26.225Z,11.80
2023-02-15T16:33:17.559Z,12.73
2023-02-15T16:35:59.781Z,13.65
2023-02-15T16:38:42.888Z,14.73
2023-02-15T16:41:12.418Z,14.23
2023-02-15T16:43:41.627Z,14.48
2023-02-15T16:48:44.106Z,14.63
2023-02-15T16:51:10.881Z,15.23
2023-02-15T16:53:38.004Z,16.45
2023-02-15T16:56:06.199Z,17.35
2023-02-15T16:58:41.616Z,15.13
2023-02-15T17:01:11.148Z,17.20
2023-02-15T17:03:38.759Z,16.17
2023-02-15T17:06:28.070Z,15.25
2023-02-15T17:11:40.963Z,16.52
2023-02-15T17:14:10.567Z,16.33
2023-02-15T17:16:43.326Z,15.20
2023-02-15T17:19:16.148Z,15.93
2023-02-15T17:21:57.160Z,15.50
2023-02-15T17:24:41.028Z,17.35
2023-02-15T17:27:35.761Z,17.85
2023-02-15T17:30:13.927Z,18.75
2023-02-15T17:32:54.985Z,18.38
2023-02-15T17:35:28.125Z,18.48
2023-02-15T17:38:18.246Z,15.23
2023-02-15T17:40:44.884Z,16.90
2023-02-15T17:43:11.620Z,17.05
2023-02-15T17:45:48.003Z,14.95
2023-02-15T17:48:33.198Z,17.15
2023-02-15T17:51:03.014Z,17.73
2023-02-15T17:53:29.886Z,18.00
2023-02-15T17:55:56.678Z,16.73
2023-02-15T17:58:23.637Z,17.52
2023-02-15T18:01:11.373Z,19.50
2023-02-15T18:04:06.622Z,16.73
2023-02-15T18:06:53.185Z,16.70
2023-02-15T18:09:41.009Z,18.92
2023-02-15T18:12:38.221Z,18.80
2023-02-15T18:15:06.871Z,16.15
2023-02-15T18:17:46.678Z,17.98
2023-02-15T18:20:34.902Z,18.73
2023-02-15T18:23:02.307Z,18.60
2023-02-15T18:25:29.203Z,17.42
2023-02-15T18:27:55.946Z,18.45
2023-02-15T18:30:25.629Z,18.85
2023-02-15T18:32:56.719Z,17.63
2023-02-15T18:35:26.665Z,19.15
2023-02-15T18:37:54.083Z,18.73
2023-02-15T18:40:24.789Z,21.00
2023-02-15T18:42:51.594Z,17.48
2023-02-15T18:45:21.840Z,18.33
2023-02-15T18:47:48.915Z,18.98
2023-02-15T18:50:17.864Z,17.05
2023-02-15T18:52:47.413Z,17.60
2023-02-15T18:55:38.543Z,18.52
2023-02-15T18:58:05.287Z,19.33
2023-02-15T19:00:34.151Z,19.25
2023-02-15T19:03:02.682Z,17.13
2023-02-15T19:05:30.820Z,19.70
2023-02-15T19:07:59.843Z,19.02
2023-02-15T19:10:29.598Z,18.67
2023-02-15T19:13:01.188Z,18.98
2023-02-15T19:15:32.335Z,19.45
2023-02-15T19:17:58.953Z,20.27
2023-02-15T19:20:41.550Z,19.55
2023-02-15T19:23:14.602Z,17.92
2023-02-15T19:25:41.901Z,21.63
2023-02-15T19:28:24.154Z,19.17
2023-02-15T19:30:50.882Z,20.58
2023-02-15T19:33:20.405Z,20.52
2023-02-15T19:35:52.490Z,19.50
2023-02-15T19:38:22.825Z,23.08
2023-02-15T19:40:49.777Z,21.17
2023-02-15T19:43:19.321Z,20.13
2023-02-15T19:45:46.801Z,21.15
2023-02-15T19:48:14.944Z,21.33
2023-02-15T19:50:43.724Z,21.33
2023-02-15T19:53:17.981Z,21.92
2023-02-15T19:55:44.662Z,20.77
2023-02-15T19:58:13.395Z,21.00
2023-02-15T20:00:40.410Z,22.65
2023-02-15T20:03:07.081Z,21.33
2023-02-15T20:05:38.314Z,21.92
2023-02-15T20:08:12.549Z,22.67
2023-02-15T20:10:39.276Z,21.83
2023-02-15T20:13:05.954Z,21.60
2023-02-15T20:15:34.911Z,21.90
2023-02-15T20:18:04.117Z,22.70
2023-02-15T20:20:45.781Z,21.52
2023-02-15T20:23:22.728Z,24.83
2023-02-15T20:25:50.404Z,23.65
2023-02-15T20:28:20.283Z,25.23
2023-02-15T20:30:47.894Z,22.67
2023-02-15T20:33:15.407Z,24.63
2023-02-15T20:35:43.454Z,21.70
2023-02-15T20:38:19.593Z,21.98
2023-02-15T20:41:05.206Z,22.50
2023-02-15T20:43:33.222Z,23.55
2023-02-15T20:46:00.421Z,23.45
2023-02-15T20:48:27.316Z,22.00
2023-02-15T20:50:54.869Z,21.05
2023-02-15T20:53:21.836Z,26.13
2023-02-15T20:55:48.516Z,22.02
2023-02-15T20:58:36.320Z,22.98
2023-02-15T21:01:03.285Z,22.65
2023-02-15T21:03:31.803Z,23.15
2023-02-15T21:05:59.346Z,23.20
2023-02-15T21:08:26.750Z,20.92
2023-02-15T21:10:54.387Z,22.75
2023-02-15T21:13:33.176Z,22.80
2023-02-15T21:16:00.558Z,25.55
2023-02-15T21:18:30.159Z,22.50
2023-02-15T21:21:03.490Z,21.98
2023-02-15T21:23:40.716Z,25.33
2023-02-15T21:26:17.239Z,21.77
2023-02-15T21:28:45.207Z,24.70
2023-02-15T21:31:21.123Z,25.13
2023-02-15T21:33:48.103Z,24.65
2023-02-15T21:36:17.474Z,24.20
2023-02-15T21:41:38.087Z,26.17
2023-02-15T21:44:35.052Z,27.38
2023-02-15T21:47:20.384Z,22.80
2023-02-15T21:49:47.045Z,27.70
2023-02-15T21:52:17.411Z,29.08
2023-02-15T21:54:44.055Z,26.30
2023-02-15T21:57:14.480Z,30.63
2023-02-15T21:59:42.469Z,29.95
2023-02-15T22:02:31.120Z,29.65
2023-02-15T22:04:59.138Z,29.92
2023-02-15T22:07:25.752Z,30.75
2023-02-15T22:09:54.329Z,30.90
2023-02-15T22:12:22.253Z,32.73
2023-02-15T22:14:54.052Z,27.85
2023-02-15T22:17:24.922Z,33.50
2023-02-15T22:19:52.413Z,30.25
2023-02-15T22:22:19.021Z,31.45
2023-02-15T22:24:46.229Z,31.33
2023-02-15T22:27:24.075Z,33.03
2023-02-15T22:29:50.708Z,33.75
2023-02-15T22:32:19.718Z,30.20
2023-02-15T22:34:46.891Z,34.75
2023-02-15T22:37:13.811Z,34.40
2023-02-15T22:39:40.979Z,32.55
2023-02-15T22:42:25.267Z,34.35
2023-02-15T22:44:55.380Z,31.83
2023-02-15T22:47:24.477Z,31.27
2023-02-15T22:49:51.205Z,31.85
2023-02-15T22:52:18.886Z,34.47
2023-02-15T22:54:46.255Z,32.10
2023-02-15T22:57:30.980Z,33.63
2023-02-15T22:59:59.448Z,34.35
2023-02-15T23:02:26.134Z,31.70
2023-02-15T23:04:53.742Z,33.03
2023-02-15T23:07:21.510Z,35.45
2023-02-15T23:09:48.126Z,34.88
2023-02-15T23:12:26.007Z,36.65
2023-02-15T23:14:53.758Z,35.25
2023-02-15T23:17:20.594Z,38.75
2023-02-15T23:19:47.347Z,36.45
2023-02-15T23:22:18.160Z,37.10
2023-02-15T23:24:49.767Z,36.13
2023-02-15T23:27:36.696Z,35.88
2023-02-15T23:30:13.378Z,38.97
2023-02-15T23:32:40.128Z,35.65
2023-02-15T23:35:15.311Z,39.50
2023-02-15T23:37:41.964Z,40.83
2023-02-15T23:40:34.382Z,41.42
2023-02-15T23:43:01.032Z,41.05
2023-02-15T23:45:27.930Z,39.65
2023-02-15T23:48:13.047Z,43.60
2023-02-15T23:50:39.706Z,42.22
2023-02-15T23:53:06.329Z,42.03
2023-02-15T23:55:40.864Z,44.30
2023-02-15T23:58:16.388Z,45.25
